Time;durP1;ratioP1;P1;durP2;ratioP2;P2;SDS_P1;SDS_P2;PMS_P1;PMS_P2;Temp;Humidity;BMP_temperature;BMP_pressure;BME280_temperature;BME280_humidity;BME280_pressure;Samples;Min_cycle;Max_cycle;Signal;HPM_P1;HPM_P2
2021/07/09 00:01:06;;;;;;;3.00;2.10;;;25.30;58.00;;;;;;6203618;23;20374;-84
2021/07/09 00:03:41;;;;;;;2.10;1.67;;;25.30;58.00;;;;;;6152658;23;20396;-83
2021/07/09 00:06:20;;;;;;;;;;;;;;;;;;;;;
2021/07/09 00:09:04;;;;;;;3.00;1.73;;;25.30;58.00;;;;;;6202452;23;20367;-82
2021/07/09 00:11:34;;;;;;;2.67;1.80;;;25.30;58.00;;;;;;6176594;23;20412;-82
2021/07/09 00:14:03;;;;;;;2.53;1.67;;;25.30;58.00;;;;;;6176868;23;20387;-82
2021/07/09 00:16:50;;;;;;;2.40;1.80;;;25.30;58.00;;;;;;6152118;23;20775;-83
2021/07/09 00:19:28;;;;;;;1.70;1.60;;;25.30;58.00;;;;;;6175626;23;20384;-83
2021/07/09 00:22:00;;;;;;;3.33;2.00;;;25.30;58.10;;;;;;6202549;23;20373;-83
2021/07/09 00:24:30;;;;;;;2.60;1.80;;;25.30;58.00;;;;;;6174354;23;20437;-83
2021/07/09 00:27:10;;;;;;;2.37;1.60;;;25.30;58.10;;;;;;6202762;23;20363;-83
2021/07/09 00:29:45;;;;;;;2.70;1.97;;;25.30;58.10;;;;;;6151654;23;20379;-83
2021/07/09 00:32:33;;;;;;;2.13;1.90;;;25.30;58.10;;;;;;6198807;23;20364;-85
2021/07/09 00:35:09;;;;;;;2.70;1.80;;;25.30;58.10;;;;;;6176558;23;20470;-83
2021/07/09 00:37:40;;;;;;;2.33;1.80;;;25.30;58.10;;;;;;6202135;23;20402;-83
2021/07/09 00:40:11;;;;;;;2.80;1.90;;;25.30;58.20;;;;;;6176881;22;20383;-83
2021/07/09 00:42:48;;;;;;;2.07;1.90;;;25.30;58.20;;;;;;6176243;23;20402;-82
2021/07/09 00:45:24;;;;;;;2.20;1.87;;;25.30;58.20;;;;;;6193525;23;20423;-82
2021/07/09 00:47:52;;;;;;;3.60;2.20;;;25.30;58.30;;;;;;6176641;23;20379;-83
2021/07/09 00:50:28;;;;;;;2.40;2.20;;;25.30;58.30;;;;;;6176692;22;20390;-83
2021/07/09 00:53:00;;;;;;;4.83;1.90;;;25.30;58.30;;;;;;6177475;23;20402;-84
2021/07/09 00:55:37;;;;;;;2.93;2.10;;;25.30;58.30;;;;;;6176991;23;20379;-84
2021/07/09 00:58:10;;;;;;;2.20;2.00;;;25.30;58.30;;;;;;6176196;23;20390;-84
2021/07/09 01:00:41;;;;;;;2.20;1.97;;;25.30;58.30;;;;;;6181754;22;20383;-84
2021/07/09 01:03:11;;;;;;;1.80;1.70;;;25.30;58.30;;;;;;6176748;23;20479;-83
2021/07/09 01:05:42;;;;;;;2.77;1.97;;;25.30;58.40;;;;;;6178070;23;20482;-83
2021/07/09 01:08:09;;;;;;;2.90;2.00;;;25.30;58.30;;;;;;6177346;22;20381;-83
2021/07/09 01:10:42;;;;;;;2.47;2.23;;;25.30;58.40;;;;;;6177579;23;20402;-83
2021/07/09 01:13:20;;;;;;;3.03;2.00;;;25.30;58.40;;;;;;6177210;22;20388;-82
2021/07/09 01:15:52;;;;;;;3.67;2.60;;;25.30;58.40;;;;;;6176960;23;20383;-83
2021/07/09 01:18:21;;;;;;;2.40;2.20;;;25.40;58.50;;;;;;6177226;23;20403;-82
2021/07/09 01:20:53;;;;;;;2.47;2.17;;;25.30;58.50;;;;;;6178412;22;20387;-83
2021/07/09 01:23:25;;;;;;;2.87;2.60;;;25.30;58.50;;;;;;6176794;23;20375;-84
2021/07/09 01:25:52;;;;;;;2.27;2.07;;;25.30;58.50;;;;;;6185529;22;20452;-83
2021/07/09 01:28:24;;;;;;;3.10;2.53;;;25.30;58.60;;;;;;6176734;23;20383;-83
2021/07/09 01:31:02;;;;;;;3.17;2.43;;;25.30;58.50;;;;;;6203968;23;20367;-85
2021/07/09 01:33:42;;;;;;;4.70;2.90;;;25.30;58.50;;;;;;6177397;23;20405;-84
2021/07/09 01:36:09;;;;;;;5.10;2.50;;;25.30;58.60;;;;;;6181375;22;20379;-83
2021/07/09 01:38:38;;;;;;;3.07;2.57;;;25.30;58.60;;;;;;6180080;23;20390;-83
2021/07/09 01:41:18;;;;;;;2.77;2.30;;;25.30;59.20;;;;;;6186594;22;20454;-83
2021/07/09 01:43:49;;;;;;;4.20;2.60;;;25.30;58.70;;;;;;6178654;22;20375;-83
2021/07/09 01:46:20;;;;;;;3.70;3.00;;;25.30;58.70;;;;;;6203846;22;20411;-84
2021/07/09 01:48:48;;;;;;;2.80;2.60;;;25.30;58.70;;;;;;6178243;23;20385;-83
2021/07/09 01:51:16;;;;;;;5.37;2.80;;;25.30;58.60;;;;;;6179810;22;20383;-84
2021/07/09 01:53:47;;;;;;;2.60;2.40;;;25.30;58.60;;;;;;6178843;23;20857;-83
2021/07/09 01:56:13;;;;;;;3.20;2.90;;;25.30;58.70;;;;;;6177533;23;20383;-84
2021/07/09 01:58:43;;;;;;;4.53;2.57;;;25.30;58.70;;;;;;6178593;23;20390;-83
2021/07/09 02:01:12;;;;;;;2.67;2.40;;;25.30;58.70;;;;;;6176619;23;20385;-83
2021/07/09 02:03:39;;;;;;;2.67;2.47;;;25.30;58.70;;;;;;6176993;23;20383;-83
2021/07/09 02:06:07;;;;;;;2.60;2.40;;;25.30;58.70;;;;;;6174525;23;20427;-83
2021/07/09 02:08:37;;;;;;;2.60;2.40;;;25.30;58.70;;;;;;6179388;22;20388;-83
2021/07/09 02:11:11;;;;;;;3.00;2.43;;;25.30;58.70;;;;;;6175819;22;20375;-83
2021/07/09 02:13:40;;;;;;;3.20;2.40;;;25.30;58.70;;;;;;6176728;23;20379;-83
2021/07/09 02:16:43;;;;;;;2.53;2.33;;;25.30;58.70;;;;;;6176138;23;20455;-85
2021/07/09 02:19:17;;;;;;;2.97;2.70;;;25.30;58.70;;;;;;6201361;23;20356;-85
2021/07/09 02:21:58;;;;;;;;;;;;;;;;;;;;;
2021/07/09 02:24:42;;;;;;;4.33;2.53;;;25.20;58.70;;;;;;6201854;23;20352;-85
2021/07/09 02:27:31;;;;;;;2.60;2.40;;;25.20;58.80;;;;;;6174365;23;20382;-85
2021/07/09 02:29:59;;;;;;;3.30;3.00;;;25.20;58.80;;;;;;6175690;23;20386;-84
2021/07/09 02:32:30;;;;;;;3.60;2.60;;;25.20;58.80;;;;;;6174324;22;20417;-84
2021/07/09 02:34:57;;;;;;;3.27;2.40;;;25.20;58.80;;;;;;6174573;22;20379;-84
2021/07/09 02:37:26;;;;;;;2.77;2.47;;;25.20;58.80;;;;;;6174876;22;20951;-84
2021/07/09 02:39:58;;;;;;;2.27;2.07;;;25.20;58.80;;;;;;6174200;22;20409;-85
2021/07/09 02:42:25;;;;;;;2.53;2.33;;;25.20;59.30;;;;;;6172241;23;20868;-85
2021/07/09 02:44:52;;;;;;;3.30;2.80;;;25.20;58.80;;;;;;6174067;23;20452;-84
2021/07/09 02:47:30;;;;;;;2.90;2.57;;;25.20;58.80;;;;;;6174572;23;20379;-84
2021/07/09 02:49:56;;;;;;;2.60;2.27;;;25.20;58.80;;;;;;6173822;22;20375;-84
2021/07/09 02:52:28;;;;;;;3.50;2.80;;;25.20;58.80;;;;;;6173608;23;20403;-84
2021/07/09 02:55:06;;;;;;;2.50;2.30;;;25.20;58.80;;;;;;6174300;22;20764;-84
2021/07/09 02:57:39;;;;;;;2.60;2.40;;;25.20;58.90;;;;;;6173550;23;20697;-84
2021/07/09 03:01:07;;;;;;;2.30;2.10;;;25.20;58.90;;;;;;6174281;22;20395;-85
2021/07/09 03:03:36;;;;;;;4.10;2.20;;;25.20;58.80;;;;;;6177494;23;20390;-84
2021/07/09 03:06:02;;;;;;;3.47;3.17;;;25.20;59.00;;;;;;6176438;23;20454;-84
2021/07/09 03:08:29;;;;;;;2.60;2.10;;;25.10;59.00;;;;;;6176804;23;20381;-84
2021/07/09 03:10:56;;;;;;;2.47;2.10;;;25.10;58.90;;;;;;6176765;23;20382;-84
2021/07/09 03:13:23;;;;;;;2.97;2.20;;;25.10;58.90;;;;;;6178430;23;20378;-84
2021/07/09 03:15:55;;;;;;;2.73;2.30;;;25.10;58.90;;;;;;6177666;23;20418;-84
2021/07/09 03:18:24;;;;;;;2.90;2.50;;;25.20;59.00;;;;;;6153187;23;20422;-84
2021/07/09 03:20:54;;;;;;;3.20;2.60;;;25.20;59.00;;;;;;6175567;23;20383;-84
2021/07/09 03:23:25;;;;;;;4.53;2.43;;;25.10;58.90;;;;;;6176730;23;20387;-85
2021/07/09 03:26:01;;;;;;;;;;;;;;;;;;;;;
2021/07/09 03:28:31;;;;;;;2.80;2.60;;;25.10;58.90;;;;;;6203297;23;20354;-84
2021/07/09 03:31:04;;;;;;;2.77;2.50;;;25.10;58.90;;;;;;6176461;23;20386;-84
2021/07/09 03:33:32;;;;;;;2.67;2.47;;;25.10;58.90;;;;;;6201066;23;20367;-85
2021/07/09 03:36:00;;;;;;;3.13;2.93;;;25.10;58.90;;;;;;6175579;23;20451;-85
2021/07/09 03:38:33;;;;;;;3.53;2.80;;;25.10;59.50;;;;;;6201462;23;20379;-84
2021/07/09 03:41:05;;;;;;;2.73;2.50;;;25.10;58.90;;;;;;6200139;23;20439;-84
2021/07/09 03:43:36;;;;;;;2.67;2.47;;;25.10;58.90;;;;;;6172252;23;20414;-83
2021/07/09 03:46:12;;;;;;;3.10;2.80;;;25.10;58.90;;;;;;6199528;23;20437;-83
2021/07/09 03:48:44;;;;;;;3.37;3.07;;;25.10;58.90;;;;;;6173707;22;20379;-84
2021/07/09 03:51:10;;;;;;;3.20;2.97;;;25.10;58.90;;;;;;6172826;23;20455;-83
2021/07/09 03:53:41;;;;;;;3.53;2.97;;;25.10;58.90;;;;;;6198967;23;20391;-84
2021/07/09 03:56:09;;;;;;;3.60;3.30;;;25.10;58.90;;;;;;6173306;23;20387;-83
2021/07/09 03:58:36;;;;;;;4.47;2.97;;;25.10;58.90;;;;;;6172569;23;20405;-83
2021/07/09 04:01:03;;;;;;;3.47;2.90;;;25.10;58.90;;;;;;6173445;22;20394;-85
2021/07/09 04:03:30;;;;;;;3.53;3.23;;;25.10;58.90;;;;;;6172359;23;20394;-85
2021/07/09 04:06:09;;;;;;;3.87;3.57;;;25.10;58.90;;;;;;6175789;23;20429;-85
2021/07/09 04:08:40;;;;;;;3.70;3.40;;;25.10;58.90;;;;;;6177580;22;20358;-85
2021/07/09 04:11:10;;;;;;;4.20;3.60;;;25.10;58.90;;;;;;6178202;22;20379;-85
2021/07/09 04:13:37;;;;;;;3.60;3.30;;;25.10;58.90;;;;;;6130283;23;20380;-83
2021/07/09 04:16:09;;;;;;;3.43;3.13;;;25.10;58.90;;;;;;6179525;23;20398;-84
2021/07/09 04:18:56;;;;;;;3.87;3.57;;;25.10;59.00;;;;;;6178270;22;20387;-84
2021/07/09 04:21:29;;;;;;;3.60;3.30;;;25.10;58.90;;;;;;6154069;23;20390;-89
2021/07/09 04:27:22;;;;;;;3.77;3.13;;;25.10;58.90;;;;;;6205506;22;20866;-84
2021/07/09 04:33:06;;;;;;;3.23;2.87;;;25.10;58.90;;;;;;6204139;23;20378;-85
2021/07/09 04:36:25;;;;;;;;;;;;;;;;;;;;;
2021/07/09 04:41:52;;;;;;;3.10;2.63;;;25.10;59.00;;;;;;6110258;23;20457;-86
2021/07/09 04:44:19;;;;;;;5.50;3.67;;;25.10;59.00;;;;;;6085233;23;20382;-86
2021/07/09 04:46:57;;;;;;;4.27;3.87;;;25.10;59.00;;;;;;6085127;23;20436;-86
2021/07/09 04:50:07;;;;;;;;;;;;;;;;;;;;;
2021/07/09 04:52:46;;;;;;;3.67;3.37;;;25.10;58.90;;;;;;6112758;23;20378;-86
2021/07/09 04:55:44;;;;;;;;;;;;;;;;;;;;;
2021/07/09 04:58:35;;;;;;;4.20;3.30;;;25.10;58.90;;;;;;6113388;23;20393;-86
2021/07/09 05:01:15;;;;;;;;;;;;;;;;;;;;;
2021/07/09 05:10:26;;;;;;;3.77;3.43;;;25.10;58.70;;;;;;6142654;23;20357;-85
2021/07/09 05:13:14;;;;;;;4.50;3.90;;;25.10;58.90;;;;;;6137819;23;20369;-86
2021/07/09 05:15:46;;;;;;;3.70;3.40;;;25.10;58.90;;;;;;6141157;23;20457;-86
2021/07/09 05:18:13;;;;;;;4.50;4.10;;;25.10;58.90;;;;;;6114881;23;20444;-86
2021/07/09 05:20:41;;;;;;;4.20;3.80;;;25.10;58.90;;;;;;6115386;23;20385;-86
2021/07/09 05:23:10;;;;;;;5.20;3.30;;;25.10;58.90;;;;;;6114695;23;20404;-86
2021/07/09 05:25:41;;;;;;;4.60;3.70;;;25.10;58.80;;;;;;6113694;23;20487;-86
2021/07/09 05:28:13;;;;;;;3.70;3.40;;;25.10;58.70;;;;;;6141217;23;20405;-85
2021/07/09 05:30:55;;;;;;;;;;;;;;;;;;;;;
2021/07/09 05:36:23;;;;;;;3.07;2.87;;;25.10;58.70;;;;;;6113394;23;20734;-86
2021/07/09 05:39:00;;;;;;;4.17;3.87;;;25.10;58.70;;;;;;6064400;23;20404;-86
2021/07/09 05:41:53;;;;;;;3.60;3.30;;;25.10;58.60;;;;;;6165718;23;20407;-86
2021/07/09 05:44:39;;;;;;;3.90;3.60;;;25.10;58.70;;;;;;6118697;23;20445;-86
2021/07/09 05:47:28;;;;;;;;;;;;;;;;;;;;;
2021/07/09 05:50:07;;;;;;;3.33;3.13;;;25.10;58.60;;;;;;6142315;23;20384;-87
2021/07/09 05:52:56;;;;;;;;;;;;;;;;;;;;;
2021/07/09 05:55:32;;;;;;;3.50;3.20;;;25.10;58.80;;;;;;6139878;23;20364;-86
2021/07/09 05:58:12;;;;;;;3.87;3.57;;;25.10;58.80;;;;;;6114135;23;20393;-86
2021/07/09 06:01:05;;;;;;;3.50;3.20;;;25.10;58.80;;;;;;6114428;23;20377;-86
2021/07/09 06:03:38;;;;;;;3.40;3.10;;;25.10;58.80;;;;;;6113889;23;20381;-86
2021/07/09 06:09:43;;;;;;;3.33;3.03;;;25.00;58.80;;;;;;6051855;23;20384;-86
2021/07/09 06:12:24;;;;;;;3.83;3.53;;;25.00;58.80;;;;;;6027415;23;20394;-87
2021/07/09 06:15:40;;;;;;;3.57;3.27;;;25.00;58.90;;;;;;6051878;23;20376;-86
2021/07/09 06:32:24;;;;;;;3.50;3.20;;;25.10;58.80;;;;;;6026533;23;20416;-86
2021/07/09 06:35:29;;;;;;;3.23;2.93;;;25.10;58.80;;;;;;6000252;23;20389;-86
2021/07/09 07:27:27;;;;;;;;;;;;;;;;;;;;;
2021/07/09 08:12:00;;;;;;;;;;;;;;;;;;;;;
2021/07/09 08:18:32;;;;;;;3.53;2.73;;;25.60;58.30;;;;;;5873782;24;20782;-84
2021/07/09 08:24:15;;;;;;;2.33;2.13;;;25.60;58.30;;;;;;5933748;24;20382;-84
2021/07/09 08:37:59;;;;;;;2.40;2.20;;;25.70;58.30;;;;;;6043785;23;20397;-84
2021/07/09 08:41:02;;;;;;;;;;;;;;;;;;;;;
2021/07/09 14:32:02;;;;;;;2.80;2.30;;;25.70;58.50;;;;;;6360935;22;20369;-81
2021/07/09 14:42:05;;;;;;;;;;;;;;;;;;;;;
2021/07/09 14:45:01;;;;;;;2.57;2.37;;;25.70;58.40;;;;;;6111348;23;20394;-86
2021/07/09 14:48:13;;;;;;;2.53;1.73;;;25.80;58.40;;;;;;6086683;23;20727;-85
2021/07/09 14:51:16;;;;;;;;;;;;;;;;;;;;;
2021/07/09 14:57:48;;;;;;;2.27;1.80;;;25.80;58.30;;;;;;6107432;23;20369;-85
2021/07/09 15:01:02;;;;;;;;;;;;;;;;;;;;;
2021/07/09 15:03:52;;;;;;;3.30;1.87;;;25.80;58.30;;;;;;6026759;23;20384;-85
2021/07/09 15:06:42;;;;;;;2.97;2.27;;;25.80;58.30;;;;;;6002083;23;20433;-85
2021/07/09 15:09:24;;;;;;;;;;;;;;;;;;;;;
2021/07/09 15:12:19;;;;;;;2.70;2.03;;;25.80;58.30;;;;;;6111274;23;20355;-85
2021/07/09 15:15:20;;;;;;;;;;;;;;;;;;;;;
2021/07/09 15:17:49;;;;;;;2.27;2.00;;;25.90;58.30;;;;;;6260915;23;20366;-86
2021/07/09 15:25:08;;;;;;;;;;;;;;;;;;;;;
2021/07/09 15:34:46;;;;;;;;;;;;;;;;;;;;;
2021/07/09 15:47:56;;;;;;;3.00;2.13;;;25.80;58.30;;;;;;6000342;24;20457;-88
2021/07/09 15:55:07;;;;;;;;;;;;;;;;;;;;;
2021/07/09 16:08:52;;;;;;;4.13;2.37;;;25.70;58.30;;;;;;6028276;23;20394;-88
2021/07/09 16:15:13;;;;;;;2.60;2.30;;;25.60;58.30;;;;;;6014476;23;20383;-87
2021/07/09 16:27:31;;;;;;;5.50;2.40;;;25.50;58.50;;;;;;5945386;23;20448;-87
2021/07/09 16:33:22;;;;;;;5.60;2.17;;;25.50;58.60;;;;;;6000061;24;20373;-87
2021/07/09 16:42:09;;;;;;;2.30;1.70;;;25.50;58.70;;;;;;5972780;24;20452;-88
2021/07/09 16:45:00;;;;;;;1.80;1.40;;;25.50;58.70;;;;;;5972534;24;20441;-88
2021/07/09 16:47:46;;;;;;;1.63;1.33;;;25.40;58.60;;;;;;5893634;24;20428;-87
2021/07/09 16:50:55;;;;;;;1.97;1.53;;;25.40;58.60;;;;;;5998259;23;20382;-88
2021/07/09 16:53:28;;;;;;;2.47;1.50;;;25.40;58.60;;;;;;6062963;23;20370;-87
2021/07/09 16:56:32;;;;;;;;;;;;;;;;;;;;;
2021/07/09 16:59:18;;;;;;;;;;;;;;;;;;;;;
2021/07/09 17:01:57;;;;;;;2.33;1.50;;;25.40;58.70;;;;;;6204214;23;20406;-87
2021/07/09 17:04:34;;;;;;;2.13;1.53;;;25.40;58.70;;;;;;6177819;23;20391;-87
2021/07/09 17:07:47;;;;;;;1.90;1.40;;;25.40;58.60;;;;;;6179433;23;20486;-87
2021/07/09 17:20:20;;;;;;;2.07;1.50;;;25.30;58.60;;;;;;6234229;23;20369;-87
2021/07/09 17:22:57;;;;;;;2.40;2.20;;;25.40;58.60;;;;;;6203025;23;20377;-87
2021/07/09 17:29:25;;;;;;;1.67;1.27;;;25.30;58.40;;;;;;6234607;23;20333;-87
2021/07/09 17:32:05;;;;;;;2.70;1.33;;;25.30;58.50;;;;;;6208974;23;20900;-87
2021/07/09 17:34:45;;;;;;;;;;;;;;;;;;;;;
2021/07/09 17:37:26;;;;;;;2.13;1.40;;;25.30;58.50;;;;;;6235813;23;20403;-87
2021/07/09 17:46:10;;;;;;;2.53;2.00;;;25.30;58.60;;;;;;6205442;23;20464;-87
2021/07/09 17:48:40;;;;;;;3.30;1.80;;;25.20;58.60;;;;;;6179572;23;20402;-87
2021/07/09 17:51:15;;;;;;;1.60;1.50;;;25.20;59.10;;;;;;6293509;22;20383;-87
2021/07/09 17:53:45;;;;;;;3.47;1.70;;;25.20;58.60;;;;;;6302224;22;20379;-87
2021/07/09 18:03:08;;;;;;;2.43;1.40;;;25.20;58.70;;;;;;6205834;22;20582;-87
2021/07/09 18:05:52;;;;;;;1.53;1.43;;;25.10;58.70;;;;;;6204632;23;20414;-87
2021/07/09 18:18:28;;;;;;;1.27;0.97;;;25.10;58.90;;;;;;6145070;23;20369;-87
2021/07/09 18:21:05;;;;;;;1.50;1.30;;;25.10;59.00;;;;;;6144902;23;20377;-86
2021/07/09 18:24:11;;;;;;;1.70;1.57;;;25.10;58.90;;;;;;6115854;23;20388;-87
2021/07/09 18:27:09;;;;;;;1.87;1.77;;;25.10;58.90;;;;;;6138664;23;20419;-86
2021/07/09 18:40:29;;;;;;;1.43;1.33;;;25.00;59.00;;;;;;6025556;23;20344;-86
2021/07/09 18:43:32;;;;;;;5.43;1.97;;;25.00;59.10;;;;;;6025371;23;20381;-87
2021/07/09 18:46:01;;;;;;;2.03;1.60;;;25.00;59.10;;;;;;6024942;23;20435;-87
2021/07/09 18:48:30;;;;;;;3.83;1.40;;;25.00;59.30;;;;;;6025259;23;20385;-86
2021/07/09 18:50:56;;;;;;;2.70;1.50;;;25.00;59.20;;;;;;6024558;23;20429;-86
2021/07/09 18:53:34;;;;;;;2.80;1.40;;;25.00;59.20;;;;;;6029297;23;20392;-87
2021/07/09 18:56:16;;;;;;;1.90;1.70;;;25.00;59.20;;;;;;6097778;23;20484;-87
2021/07/09 18:58:57;;;;;;;;;;;;;;;;;;;;;
2021/07/09 19:01:57;;;;;;;1.50;1.40;;;25.00;59.20;;;;;;6144482;23;20380;-86
2021/07/09 19:04:36;;;;;;;2.03;1.63;;;25.00;59.20;;;;;;6116458;23;20389;-86
2021/07/09 19:10:03;;;;;;;1.90;1.30;;;25.00;59.20;;;;;;6159527;23;20374;-84
2021/07/09 19:19:35;;;;;;;1.77;1.20;;;25.00;59.20;;;;;;6140596;23;20384;-85
2021/07/09 19:22:19;;;;;;;1.83;1.40;;;24.90;59.80;;;;;;6116009;23;20400;-85
2021/07/09 19:25:01;;;;;;;2.57;1.90;;;25.00;59.40;;;;;;6115877;23;20404;-84
2021/07/09 19:27:30;;;;;;;1.40;1.30;;;24.90;59.30;;;;;;6140984;23;20782;-85
2021/07/09 19:30:10;;;;;;;1.70;1.60;;;24.90;59.30;;;;;;6117118;23;20369;-85
2021/07/09 19:32:43;;;;;;;1.77;1.50;;;25.00;59.30;;;;;;6033446;23;20383;-86
2021/07/09 19:35:33;;;;;;;1.80;1.60;;;24.90;59.30;;;;;;6140722;23;20385;-86
2021/07/09 19:38:05;;;;;;;2.87;1.40;;;24.90;59.30;;;;;;6117384;23;20432;-85
2021/07/09 19:40:37;;;;;;;1.40;1.30;;;25.00;59.40;;;;;;6090787;23;20408;-87
2021/07/09 19:43:36;;;;;;;2.50;2.30;;;25.00;59.40;;;;;;6118739;23;20381;-87
2021/07/09 20:10:39;;;;;;;1.80;1.40;;;24.80;59.40;;;;;;6264097;23;20358;-87
2021/07/09 20:16:33;;;;;;;1.43;1.30;;;24.80;59.50;;;;;;6173745;23;20381;-87
2021/07/09 20:19:09;;;;;;;;;;;;;;;;;;;;;
2021/07/09 20:21:42;;;;;;;1.80;1.70;;;24.80;59.50;;;;;;6264687;23;20470;-87
2021/07/09 20:24:14;;;;;;;1.60;1.50;;;24.80;59.50;;;;;;6238804;23;20389;-87
2021/07/09 20:27:32;;;;;;;;;;;;;;;;;;;;;
2021/07/09 20:30:12;;;;;;;1.97;1.53;;;24.80;59.20;;;;;;6260097;23;20353;-87
2021/07/09 20:33:00;;;;;;;2.50;1.97;;;24.80;59.30;;;;;;6234213;23;20380;-86
2021/07/09 20:35:36;;;;;;;1.43;1.33;;;24.80;59.30;;;;;;6234427;23;20381;-87
2021/07/09 20:38:06;;;;;;;2.03;1.33;;;24.80;59.30;;;;;;6233981;23;20401;-87
2021/07/09 20:40:42;;;;;;;2.23;1.80;;;24.80;59.20;;;;;;6262205;23;20396;-88
2021/07/09 20:43:13;;;;;;;2.03;1.83;;;24.80;59.20;;;;;;6212805;23;20388;-86
2021/07/09 20:45:42;;;;;;;2.70;1.60;;;24.80;59.30;;;;;;6238298;23;20443;-86
2021/07/09 20:48:13;;;;;;;2.83;1.67;;;24.80;59.20;;;;;;6264398;23;20400;-86
2021/07/09 20:50:40;;;;;;;1.80;1.60;;;24.80;59.30;;;;;;6264394;23;20366;-86
2021/07/09 20:53:09;;;;;;;2.00;1.70;;;24.80;59.20;;;;;;6263960;23;20409;-86
2021/07/09 20:55:45;;;;;;;2.43;1.50;;;24.90;59.40;;;;;;6238784;23;20926;-86
2021/07/09 20:58:35;;;;;;;1.40;1.30;;;24.80;59.30;;;;;;6264695;23;20448;-86
2021/07/09 21:01:14;;;;;;;2.40;1.53;;;24.80;59.20;;;;;;6260083;23;20385;-86
2021/07/09 21:03:40;;;;;;;2.03;1.83;;;24.80;59.30;;;;;;6260686;23;20373;-85
2021/07/09 21:06:12;;;;;;;3.93;1.50;;;24.80;59.30;;;;;;6260845;23;20779;-85
2021/07/09 21:08:38;;;;;;;1.50;1.30;;;24.80;59.30;;;;;;6261073;23;20410;-85
2021/07/09 21:11:05;;;;;;;1.70;1.60;;;24.80;59.30;;;;;;6261866;23;20388;-86
2021/07/09 21:13:54;;;;;;;;;;;;;;;;;;;;;
2021/07/09 21:16:30;;;;;;;4.60;1.60;;;24.80;59.30;;;;;;6264242;23;20384;-86
2021/07/09 21:18:58;;;;;;;2.20;1.53;;;24.70;59.20;;;;;;6266166;23;20381;-83
2021/07/09 21:21:31;;;;;;;1.93;1.50;;;24.80;59.20;;;;;;6267585;23;20377;-84
2021/07/09 21:23:57;;;;;;;2.40;1.60;;;24.90;59.30;;;;;;6351434;22;20441;-84
2021/07/09 21:26:40;;;;;;;3.07;1.60;;;24.80;59.30;;;;;;6334978;22;20429;-84
2021/07/09 21:29:11;;;;;;;4.17;1.73;;;24.80;59.30;;;;;;6334674;22;20373;-85
2021/07/09 21:31:45;;;;;;;2.00;1.80;;;24.80;59.30;;;;;;6362158;22;20388;-84
2021/07/09 21:34:18;;;;;;;4.20;1.63;;;24.80;59.30;;;;;;6334455;22;20378;-84
2021/07/09 21:36:49;;;;;;;2.47;1.60;;;24.80;59.40;;;;;;6333324;22;20374;-85
2021/07/09 21:39:39;;;;;;;2.10;1.73;;;24.80;59.40;;;;;;6360467;22;20394;-85
2021/07/09 21:42:19;;;;;;;1.80;1.40;;;24.80;59.40;;;;;;6335634;22;20404;-85
2021/07/09 21:44:47;;;;;;;3.00;1.40;;;24.80;59.40;;;;;;6307047;22;20378;-85
2021/07/09 21:47:29;;;;;;;1.90;1.30;;;24.80;59.50;;;;;;6362014;22;20417;-85
2021/07/09 21:50:05;;;;;;;2.30;1.30;;;24.80;59.50;;;;;;6362048;22;20381;-85
2021/07/09 21:52:37;;;;;;;2.83;1.40;;;24.70;59.40;;;;;;6334474;22;20378;-85
2021/07/09 21:55:29;;;;;;;;;;;;;;;;;;;;;
2021/07/09 21:58:04;;;;;;;1.50;1.37;;;24.70;59.40;;;;;;6266919;23;20369;-85
2021/07/09 22:00:37;;;;;;;1.90;1.70;;;24.70;59.40;;;;;;6240996;23;20836;-85
2021/07/09 22:03:14;;;;;;;2.23;1.60;;;24.70;59.40;;;;;;6242145;23;20448;-85
2021/07/09 22:06:04;;;;;;;;;;;;;;;;;;;;;
2021/07/09 22:08:34;;;;;;;3.40;1.60;;;24.80;59.50;;;;;;6267935;23;20358;-85
2021/07/09 22:11:25;;;;;;;1.87;1.73;;;24.70;59.50;;;;;;6242266;23;20388;-84
2021/07/09 22:13:57;;;;;;;1.40;1.30;;;24.60;59.40;;;;;;6267261;23;20376;-84
2021/07/09 22:16:52;;;;;;;2.27;1.50;;;24.70;59.50;;;;;;6268085;23;20385;-84
2021/07/09 22:19:26;;;;;;;1.90;1.17;;;24.70;59.40;;;;;;6205866;23;20430;-85
2021/07/09 22:21:54;;;;;;;1.80;1.37;;;24.70;59.60;;;;;;6182461;23;20387;-85
2021/07/09 22:24:35;;;;;;;2.40;1.40;;;24.70;59.50;;;;;;6182801;23;20378;-85
2021/07/09 22:27:14;;;;;;;1.53;1.40;;;24.70;59.40;;;;;;6182820;23;20442;-84
2021/07/09 22:29:44;;;;;;;2.30;1.40;;;24.70;59.50;;;;;;6182994;23;20383;-85
2021/07/09 22:32:23;;;;;;;3.40;1.50;;;24.70;59.40;;;;;;6207698;23;20347;-84
2021/07/09 22:35:16;;;;;;;4.00;1.40;;;24.70;59.40;;;;;;6179508;23;20902;-85
2021/07/09 22:37:45;;;;;;;2.10;1.37;;;24.70;59.40;;;;;;6180394;23;20485;-85
2021/07/09 22:40:13;;;;;;;1.60;1.37;;;24.70;59.40;;;;;;6179459;23;20456;-85
2021/07/09 22:42:46;;;;;;;2.30;1.60;;;24.70;59.40;;;;;;6183017;23;20375;-85
2021/07/09 22:45:15;;;;;;;2.20;2.00;;;24.70;59.40;;;;;;6180991;23;20385;-89
2021/07/09 22:47:46;;;;;;;1.70;1.50;;;24.70;59.40;;;;;;6204386;23;20384;-86
2021/07/09 22:50:23;;;;;;;2.20;1.30;;;24.70;59.30;;;;;;6267176;23;20360;-85
2021/07/09 22:52:55;;;;;;;2.83;1.60;;;24.70;59.30;;;;;;6267359;23;20481;-85
2021/07/09 22:55:33;;;;;;;1.40;1.20;;;24.70;59.30;;;;;;6290754;22;20374;-86
2021/07/09 22:58:07;;;;;;;5.63;1.60;;;24.70;59.20;;;;;;6362179;22;20354;-85
2021/07/09 23:00:38;;;;;;;1.27;1.17;;;24.70;59.40;;;;;;6334759;22;20438;-85
2021/07/09 23:03:22;;;;;;;2.53;1.40;;;24.80;59.20;;;;;;6360711;22;20385;-86
2021/07/09 23:05:50;;;;;;;1.57;1.23;;;24.80;59.10;;;;;;6310572;22;20479;-86
2021/07/09 23:08:27;;;;;;;3.03;1.43;;;24.80;59.00;;;;;;6361751;22;20409;-86
2021/07/09 23:11:02;;;;;;;1.63;1.53;;;24.80;59.00;;;;;;6334504;22;20366;-86
2021/07/09 23:13:31;;;;;;;1.60;1.50;;;24.90;59.00;;;;;;6335006;22;20374;-86
2021/07/09 23:15:58;;;;;;;2.47;1.30;;;24.90;58.90;;;;;;6334417;22;20442;-86
2021/07/09 23:18:27;;;;;;;1.30;1.20;;;25.00;58.90;;;;;;6334039;22;20379;-86
2021/07/09 23:21:01;;;;;;;1.50;1.37;;;24.90;58.80;;;;;;6334937;22;20406;-86
2021/07/09 23:23:32;;;;;;;1.60;1.50;;;25.00;58.80;;;;;;6308229;22;20381;-84
2021/07/09 23:26:00;;;;;;;1.40;1.10;;;25.00;58.80;;;;;;6329624;22;20449;-84
2021/07/09 23:28:34;;;;;;;1.90;1.30;;;25.00;58.70;;;;;;6331419;22;20382;-84
2021/07/09 23:31:04;;;;;;;1.33;1.23;;;25.10;58.70;;;;;;6358518;22;20351;-83
2021/07/09 23:33:37;;;;;;;1.43;1.33;;;25.00;58.70;;;;;;6331362;22;20434;-84
2021/07/09 23:36:16;;;;;;;1.20;1.10;;;25.00;58.70;;;;;;6358303;22;20400;-84
2021/07/09 23:38:44;;;;;;;1.33;1.20;;;25.00;58.60;;;;;;6305015;22;20404;-84
2021/07/09 23:41:10;;;;;;;2.17;1.23;;;25.10;58.70;;;;;;6331575;22;20410;-84
2021/07/09 23:43:41;;;;;;;2.17;1.30;;;25.00;58.60;;;;;;6332097;22;20367;-83
2021/07/09 23:46:08;;;;;;;1.43;1.23;;;25.10;58.60;;;;;;6330448;22;20445;-83
2021/07/09 23:48:39;;;;;;;1.37;1.27;;;25.10;58.60;;;;;;6330993;22;20408;-83
2021/07/09 23:51:07;;;;;;;1.53;1.30;;;25.10;58.60;;;;;;6331352;22;20692;-83
2021/07/09 23:53:35;;;;;;;1.30;1.20;;;25.10;58.60;;;;;;6331307;22;20385;-83
2021/07/09 23:56:02;;;;;;;1.30;1.17;;;25.10;58.50;;;;;;6331404;22;20387;-83
2021/07/09 23:58:32;;;;;;;1.20;1.10;;;25.10;58.50;;;;;;6331218;22;20402;-83
